AirNav   Everest Fuels
 
 578 users online  

MO69 Baptist Medical Center Heliport
Kansas City, Missouri, USA

GOING TO KANSAS CITY?


FAA INFORMATION EFFECTIVE 02 JANUARY 2020

Location

FAA Identifier: MO69
Lat/Long: 39-00-26.9400N 094-34-41.5500W
39-00.449000N 094-34.692500W
39.0074833,-94.5782083
(estimated)
Elevation: 170 ft. / 52 m (estimated)
Variation: 05E (1985)
Time zone: UTC -6 (UTC -5 during Daylight Saving Time)
Zip code: 64131

Heliport Operations

Heliport use: Private use, MEDICAL USE.
Activation date: 08/1989
Control tower: no
ARTCC: KANSAS CITY CENTER
FSS: COLUMBIA FLIGHT SERVICE STATION
Attendance: CONTINUOUS
Wind indicator: lighted
Segmented circle: no
Lights: SS-SR

Heliport Communications

WX ASOS at MKC (7 nm N): PHONE 816-329-2843
WX ASOS at LXT (10 nm E): 124.175 (816-347-9807)
WX ASOS at OJC (12 nm SW): PHONE 913-780-6969
WX ASOS at IXD (18 nm SW): 135.325 (913-780-6987)
WX ASOS at MCI (19 nm N): PHONE 816-329-2808

Nearby radio navigation aids

VOR radial/distance  VOR name  Freq  Var
MCIr151/18.2KANSAS CITY VORTAC113.2505E
ANXr249/21.6NAPOLEON VORTAC114.0007E

Heliport Services

Runway Information

Helipad H1

Dimensions: 60 x 60 ft. / 18 x 18 m
Surface: concrete
Runway edge lights: PERI
Latitude: 39-00.449000N
Longitude: 094-34.692500W
Elevation: 170.0 ft.
Traffic pattern: leftleft

Heliport Ownership and Management from official FAA records

Ownership: Privately-owned
Owner: BAPTIST MEDICAL CENTER
6601 ROCKHILL ROAD
KANSAS CITY, MO 64131
Phone 816-276-7000
Manager: ED STANTON
6601 ROCKHILL ROAD
KANSAS CITY, MO 64131
Phone 816-276-7071

Additional Remarks

A52-H1 70' BLDG 155' SE; 200' TREES 50' SW; 50' PLINES 20' N.
FOR CD CTC KANSAS CITY APCH AT 816-329-2710.

Instrument Procedures

There are no published instrument procedures at MO69.

Some nearby airports with instrument procedures:

KMKC - Charles B Wheeler Downtown Airport (7 nm N)
KLXT - Lee's Summit Municipal Airport (10 nm E)
KOJC - Johnson County Executive Airport (12 nm SW)
3GV - East Kansas City Airport (17 nm E)
KIXD - New Century AirCenter Airport (18 nm SW)
KMCI - Kansas City International Airport (19 nm N)
 
Loc | Ops | Rwys | IFR | FBO | Links
Com | Nav | Svcs | Stats | Notes

Kansas City Aviation Department
 
Area around MO69 (Baptist Medical Center Heliport)
 
Road maps at: MapQuest Bing Google
 
Aerial photo
No photo
 
Sectional chart

 
Airport distance calculator
Flying to Baptist Medical Center Heliport? Find the distance to fly.

From to MO69

Sunrise and sunset
Times for 21-Jan-2020
 Local
(UTC-6)
 Zulu
(UTC)
Morning civil twilight07:0513:05
Sunrise07:3413:34
Sunset17:2523:25
Evening civil twilight17:5423:54

Current date and time
Zulu (UTC)  21-Jan-2020 11:19:54
Local (UTC-6)  21-Jan-2020 05:19:54
 
METAR
KMKC 
7nm N 
211054Z 00000KT 9SM OVC014 M12/M15 A3063 RMK AO2 SLP387 T11171150
KLXT 
10nm E 
211053Z AUTO 00000KT 8SM OVC014 M12/M15 A3061 RMK AO2 SLP385 T11171150 $
KOJC 
12nm SW 
211053Z AUTO 00000KT 9SM OVC012 M13/M15 A3060 RMK AO2 SLP382 T11331150
KIXD 
18nm SW 
211053Z AUTO 00000KT 10SM CLR M13/M16 A3060 RMK AO2 SLP383 T11281161
KMCI 
19nm N 
211053Z 00000KT 10SM BKN013 M14/M17 A3060 RMK AO2 SLP382 I1000 T11441172
TAF
KMKC 
7nm N 
210520Z 2106/2206 VRB05KT P6SM FEW200 FM211200 14005KT P6SM FEW200 FM211600 17012KT P6SM SCT250 FM220000 18012KT P6SM SCT140 BKN200
KIXD 
18nm SW 
210520Z 2106/2206 VRB05KT P6SM FEW200 FM211200 14005KT P6SM FEW200 FM211600 17012KT P6SM SCT250 FM220000 18012KT P6SM SCT140 BKN200
KMCI 
19nm N 
210520Z 2106/2206 VRB05KT P6SM FEW200 FM211200 14005KT P6SM FEW250 FM211600 17012KT P6SM SCT250 FM220000 18012KT P6SM SCT140 BKN200
NOTAMs
Click for the latest NOTAMs
NOTAMs are issued by the DoD/FAA and will open in a separate window not controlled by AirNav.

 

 
 

Would you like to see your business listed on this page?

 If your business provides an interesting product or service to pilots, flight crews, aircraft, or users of the Baptist Medical Center Heliport, you should consider listing it here.  To start the listing process, click on the button below
 
Add a business
 

Other Pages about Baptist Medical Center Heliport

Update a link
 
Copyright © AirNav, LLC. All rights reserved. Privacy Policy  Contact